Time;durP1;ratioP1;P1;durP2;ratioP2;P2;SDS_P1;SDS_P2;PMS_P1;PMS_P2;Temp;Humidity;BMP_temperature;BMP_pressure;BME280_temperature;BME280_humidity;BME280_pressure;Samples;Min_cycle;Max_cycle;Signal;HPM_P1;HPM_P2
2023/06/14 00:02:08;;;;;;;4.38;1.73;;;;;;;;;;5019927;28;20041;-75
2023/06/14 00:04:35;;;;;;;6.13;1.60;;;;;;;;;;5017828;28;20037;-75
2023/06/14 00:07:01;;;;;;;9.10;1.80;;;;;;;;;;5023875;28;20721;-74
2023/06/14 00:09:27;;;;;;;5.10;1.80;;;;;;;;;;5035087;28;20494;-75
2023/06/14 00:11:53;;;;;;;5.40;1.33;;;;;;;;;;5019489;28;20045;-74
2023/06/14 00:14:19;;;;;;;5.50;1.73;;;;;;;;;;5020185;28;20134;-74
2023/06/14 00:16:45;;;;;;;6.13;2.00;;;;;;;;;;5022650;28;20057;-74
2023/06/14 00:19:11;;;;;;;7.93;1.65;;;;;;;;;;5018498;28;20044;-74
2023/06/14 00:21:37;;;;;;;6.25;1.58;;;;;;;;;;5024856;28;20038;-75
2023/06/14 00:24:04;;;;;;;3.88;1.58;;;;;;;;;;5017452;28;20162;-74
2023/06/14 00:26:30;;;;;;;8.07;1.73;;;;;;;;;;5040682;28;20036;-74
2023/06/14 00:28:56;;;;;;;2.47;1.42;;;;;;;;;;5020485;28;20034;-74
2023/06/14 00:31:22;;;;;;;8.75;1.70;;;;;;;;;;5023893;28;21603;-73
2023/06/14 00:33:49;;;;;;;4.00;1.38;;;;;;;;;;5017269;28;20026;-74
2023/06/14 00:36:15;;;;;;;4.38;1.77;;;;;;;;;;5020669;28;20517;-74
2023/06/14 00:38:41;;;;;;;4.75;1.58;;;;;;;;;;5020097;28;20040;-75
2023/06/14 00:41:07;;;;;;;5.47;1.70;;;;;;;;;;5017788;28;20022;-74
2023/06/14 00:43:34;;;;;;;6.45;1.55;;;;;;;;;;5022500;28;20068;-75
2023/06/14 00:46:00;;;;;;;4.35;1.50;;;;;;;;;;5017947;28;20041;-75
2023/06/14 00:48:27;;;;;;;3.83;1.42;;;;;;;;;;5019266;28;20033;-74
2023/06/14 00:50:53;;;;;;;2.13;1.50;;;;;;;;;;5023724;28;20022;-75
2023/06/14 00:53:25;;;;;;;8.88;2.15;;;;;;;;;;5015145;28;20387;-74
2023/06/14 00:55:51;;;;;;;11.03;1.80;;;;;;;;;;5021590;28;20033;-74
2023/06/14 00:58:17;;;;;;;4.00;1.75;;;;;;;;;;5031854;28;20048;-75
2023/06/14 01:00:44;;;;;;;9.93;1.67;;;;;;;;;;5017401;28;20520;-73
2023/06/14 01:03:12;;;;;;;4.43;1.50;;;;;;;;;;5015349;28;20207;-74
2023/06/14 01:05:38;;;;;;;9.98;1.55;;;;;;;;;;5023488;28;20022;-74
2023/06/14 01:08:19;;;;;;;16.83;2.60;;;;;;;;;;5019360;28;20018;-73
2023/06/14 01:10:53;;;;;;;3.25;1.83;;;;;;;;;;5018953;28;20032;-73
2023/06/14 01:13:34;;;;;;;4.18;1.77;;;;;;;;;;5012328;28;20050;-74
2023/06/14 01:16:01;;;;;;;8.77;1.90;;;;;;;;;;5018277;28;20030;-74
2023/06/14 01:18:29;;;;;;;6.82;1.95;;;;;;;;;;5039564;28;20041;-73
2023/06/14 01:20:55;;;;;;;3.97;1.70;;;;;;;;;;5034491;28;20119;-73
2023/06/14 01:23:22;;;;;;;3.40;1.95;;;;;;;;;;5018953;28;20498;-73
2023/06/14 01:25:52;;;;;;;7.78;1.95;;;;;;;;;;5024757;28;20029;-73
2023/06/14 01:28:19;;;;;;;4.05;2.70;;;;;;;;;;5015548;28;20028;-73
2023/06/14 01:30:47;;;;;;;4.60;1.58;;;;;;;;;;5018847;28;20052;-73
2023/06/14 01:33:18;;;;;;;2.75;1.70;;;;;;;;;;5016583;28;20048;-74
2023/06/14 01:35:45;;;;;;;8.23;2.42;;;;;;;;;;5022308;28;20033;-72
2023/06/14 01:38:11;;;;;;;6.38;1.38;;;;;;;;;;5013176;28;20060;-73
2023/06/14 01:40:37;;;;;;;4.40;1.90;;;;;;;;;;5026344;28;20021;-74
2023/06/14 01:43:04;;;;;;;3.00;1.35;;;;;;;;;;5034227;28;20092;-74
2023/06/14 01:45:30;;;;;;;4.80;1.83;;;;;;;;;;5022635;28;20103;-73
2023/06/14 01:47:56;;;;;;;6.40;1.60;;;;;;;;;;5021165;28;20025;-73
2023/06/14 01:50:22;;;;;;;8.35;1.80;;;;;;;;;;5014182;28;20033;-74
2023/06/14 01:52:48;;;;;;;5.57;2.00;;;;;;;;;;5022671;28;20029;-74
2023/06/14 01:55:15;;;;;;;3.40;1.50;;;;;;;;;;5040117;28;20044;-74
2023/06/14 01:57:41;;;;;;;3.63;1.30;;;;;;;;;;5043715;28;20036;-73
2023/06/14 02:00:10;;;;;;;2.33;1.50;;;;;;;;;;5021870;28;20457;-74
2023/06/14 02:02:36;;;;;;;3.00;1.58;;;;;;;;;;5023054;28;20116;-74
2023/06/14 02:05:04;;;;;;;3.80;1.50;;;;;;;;;;5025350;28;20431;-73
2023/06/14 02:07:30;;;;;;;4.85;1.80;;;;;;;;;;5024757;28;20110;-74
2023/06/14 02:09:57;;;;;;;8.55;1.90;;;;;;;;;;5022735;28;20041;-74
2023/06/14 02:12:23;;;;;;;3.15;1.90;;;;;;;;;;5007535;28;20042;-74
2023/06/14 02:14:49;;;;;;;4.38;1.65;;;;;;;;;;5020764;28;20494;-74
2023/06/14 02:17:15;;;;;;;7.20;1.50;;;;;;;;;;5020554;28;20137;-74
2023/06/14 02:19:42;;;;;;;3.58;1.83;;;;;;;;;;5024367;28;20037;-74
2023/06/14 02:22:08;;;;;;;5.20;1.73;;;;;;;;;;5018405;28;20105;-74
2023/06/14 02:24:35;;;;;;;3.10;1.80;;;;;;;;;;5026413;28;20033;-74
2023/06/14 02:27:02;;;;;;;3.47;1.65;;;;;;;;;;5028302;28;20033;-73
2023/06/14 02:29:28;;;;;;;2.95;1.60;;;;;;;;;;5024057;28;20028;-73
2023/06/14 02:31:54;;;;;;;6.70;1.52;;;;;;;;;;5020943;28;20041;-74
2023/06/14 02:34:21;;;;;;;4.55;1.55;;;;;;;;;;5023355;28;20095;-73
2023/06/14 02:36:47;;;;;;;5.35;2.72;;;;;;;;;;5021858;28;20120;-73
2023/06/14 02:39:14;;;;;;;4.35;1.67;;;;;;;;;;5023596;28;20049;-74
2023/06/14 02:41:40;;;;;;;2.35;1.98;;;;;;;;;;5021160;28;20037;-73
2023/06/14 02:44:07;;;;;;;2.72;1.60;;;;;;;;;;5021129;28;20060;-75
2023/06/14 02:46:33;;;;;;;5.60;1.73;;;;;;;;;;5025014;28;20057;-74
2023/06/14 02:49:00;;;;;;;6.68;1.85;;;;;;;;;;5023291;28;20026;-73
2023/06/14 02:51:26;;;;;;;11.60;1.88;;;;;;;;;;5022188;28;20425;-73
2023/06/14 02:53:52;;;;;;;3.80;1.63;;;;;;;;;;5023635;28;20037;-74
2023/06/14 02:56:19;;;;;;;4.40;1.35;;;;;;;;;;5040384;28;20095;-74
2023/06/14 02:58:46;;;;;;;2.53;1.75;;;;;;;;;;5020946;28;20057;-75
2023/06/14 03:01:13;;;;;;;2.70;1.42;;;;;;;;;;5027120;28;20494;-74
2023/06/14 03:03:39;;;;;;;4.28;1.60;;;;;;;;;;5023240;28;20045;-74
2023/06/14 03:06:08;;;;;;;2.22;1.40;;;;;;;;;;5023288;28;20125;-74
2023/06/14 03:08:38;;;;;;;6.80;1.80;;;;;;;;;;5023305;28;20555;-74
2023/06/14 03:11:08;;;;;;;5.55;1.70;;;;;;;;;;5018984;28;20076;-74
2023/06/14 03:13:35;;;;;;;7.20;2.47;;;;;;;;;;5024210;28;20075;-74
2023/06/14 03:16:02;;;;;;;2.83;1.50;;;;;;;;;;5019289;28;20026;-73
2023/06/14 03:18:30;;;;;;;4.65;1.80;;;;;;;;;;5022659;28;20128;-73
2023/06/14 03:20:57;;;;;;;5.10;1.85;;;;;;;;;;5021356;28;20029;-73
2023/06/14 03:23:25;;;;;;;9.23;1.83;;;;;;;;;;5018303;28;20462;-74
2023/06/14 03:25:51;;;;;;;3.20;1.35;;;;;;;;;;5019036;28;20075;-73
2023/06/14 03:28:17;;;;;;;3.33;1.65;;;;;;;;;;5018330;28;20490;-73
2023/06/14 03:30:43;;;;;;;3.50;1.80;;;;;;;;;;5022939;28;20036;-73
2023/06/14 03:33:10;;;;;;;10.05;1.60;;;;;;;;;;5024795;28;20030;-73
2023/06/14 03:35:36;;;;;;;10.15;1.88;;;;;;;;;;5022750;28;20029;-72
2023/06/14 03:38:03;;;;;;;3.85;1.50;;;;;;;;;;5019698;28;20030;-73
2023/06/14 03:40:29;;;;;;;4.80;2.40;;;;;;;;;;5024954;28;20037;-72
2023/06/14 03:42:55;;;;;;;7.25;2.10;;;;;;;;;;5018747;28;20550;-72
2023/06/14 03:45:21;;;;;;;7.43;1.65;;;;;;;;;;5023844;28;20475;-73
2023/06/14 03:47:47;;;;;;;4.80;1.67;;;;;;;;;;5021662;28;20033;-74
2023/06/14 03:50:15;;;;;;;4.47;2.10;;;;;;;;;;5019139;28;20033;-73
2023/06/14 03:52:43;;;;;;;2.25;1.40;;;;;;;;;;5020395;28;20021;-74
2023/06/14 03:55:09;;;;;;;6.53;1.60;;;;;;;;;;5021120;28;20034;-75
2023/06/14 03:57:35;;;;;;;4.45;1.70;;;;;;;;;;5026389;28;20144;-74
2023/06/14 04:00:04;;;;;;;2.17;1.35;;;;;;;;;;5019417;28;20198;-75
2023/06/14 04:02:30;;;;;;;2.35;1.60;;;;;;;;;;5023285;28;20033;-75
2023/06/14 04:04:56;;;;;;;6.03;2.15;;;;;;;;;;5035207;28;20458;-76
2023/06/14 04:07:23;;;;;;;7.40;1.85;;;;;;;;;;5025035;28;20209;-74
2023/06/14 04:09:49;;;;;;;6.15;2.05;;;;;;;;;;5026687;28;20033;-73
2023/06/14 04:12:15;;;;;;;3.70;2.75;;;;;;;;;;5008975;28;20041;-82
2023/06/14 04:14:41;;;;;;;30.33;15.60;;;;;;;;;;5022566;28;20079;-79
2023/06/14 04:17:07;;;;;;;4.78;3.28;;;;;;;;;;5027989;28;20053;-79
2023/06/14 04:19:33;;;;;;;7.18;2.05;;;;;;;;;;5030238;28;20075;-80
2023/06/14 04:22:01;;;;;;;5.78;2.00;;;;;;;;;;5020844;28;20041;-77
2023/06/14 04:24:31;;;;;;;4.20;2.13;;;;;;;;;;5019300;28;20451;-82
2023/06/14 04:26:58;;;;;;;7.70;2.20;;;;;;;;;;5021119;28;20026;-76
2023/06/14 04:29:26;;;;;;;6.70;1.60;;;;;;;;;;5020572;28;20026;-77
2023/06/14 04:31:53;;;;;;;4.28;1.98;;;;;;;;;;5019083;28;20467;-77
2023/06/14 04:34:21;;;;;;;3.83;2.05;;;;;;;;;;5027081;28;20037;-81
2023/06/14 04:36:52;;;;;;;5.18;2.08;;;;;;;;;;5026263;28;20438;-79
2023/06/14 04:39:19;;;;;;;4.50;2.13;;;;;;;;;;5017241;28;20044;-78
2023/06/14 04:41:46;;;;;;;4.22;1.95;;;;;;;;;;5025291;28;20295;-78
2023/06/14 04:44:12;;;;;;;5.35;1.70;;;;;;;;;;5023853;28;20026;-79
2023/06/14 04:46:48;;;;;;;3.90;2.05;;;;;;;;;;5021077;28;20116;-78
2023/06/14 04:49:17;;;;;;;4.57;2.00;;;;;;;;;;5019790;28;20038;-78
2023/06/14 04:51:44;;;;;;;19.83;9.02;;;;;;;;;;5025076;28;20333;-78
2023/06/14 04:54:13;;;;;;;31.92;17.52;;;;;;;;;;5023050;28;20048;-80
2023/06/14 04:56:40;;;;;;;8.80;2.85;;;;;;;;;;5020283;28;20070;-76
2023/06/14 04:59:06;;;;;;;5.07;1.95;;;;;;;;;;5021249;28;20042;-79
2023/06/14 05:01:33;;;;;;;3.38;1.98;;;;;;;;;;5019115;28;20038;-83
2023/06/14 05:03:59;;;;;;;1.73;1.58;;;;;;;;;;5028544;28;20018;-80
2023/06/14 05:06:27;;;;;;;3.35;1.85;;;;;;;;;;5020477;28;20132;-77
2023/06/14 05:08:53;;;;;;;8.48;2.15;;;;;;;;;;5025799;28;20036;-81
2023/06/14 05:11:19;;;;;;;9.77;2.20;;;;;;;;;;5025685;28;20037;-76
2023/06/14 05:13:46;;;;;;;3.28;1.80;;;;;;;;;;5025752;28;20052;-78
2023/06/14 05:16:12;;;;;;;4.93;2.10;;;;;;;;;;5024418;28;20426;-77
2023/06/14 05:18:40;;;;;;;6.43;1.90;;;;;;;;;;5027805;28;20057;-76
2023/06/14 05:21:06;;;;;;;7.95;2.25;;;;;;;;;;5025799;28;20072;-78
2023/06/14 05:23:32;;;;;;;5.32;2.17;;;;;;;;;;5022218;28;20052;-77
2023/06/14 05:25:58;;;;;;;3.95;2.10;;;;;;;;;;5038217;28;20041;-75
2023/06/14 05:28:25;;;;;;;4.00;2.05;;;;;;;;;;5025078;28;20476;-76
2023/06/14 05:30:51;;;;;;;42.05;24.80;;;;;;;;;;5006835;28;20037;-75
2023/06/14 05:33:17;;;;;;;9.30;2.58;;;;;;;;;;5024750;28;20042;-76
2023/06/14 05:35:43;;;;;;;5.55;2.22;;;;;;;;;;5025744;28;20037;-77
2023/06/14 05:38:09;;;;;;;4.05;2.60;;;;;;;;;;5022153;28;20372;-72
2023/06/14 05:40:35;;;;;;;5.00;2.55;;;;;;;;;;5024978;28;20053;-73
2023/06/14 05:43:02;;;;;;;4.35;2.28;;;;;;;;;;5031007;28;20041;-73
2023/06/14 05:45:28;;;;;;;4.30;2.05;;;;;;;;;;5031789;28;20091;-74
2023/06/14 05:47:54;;;;;;;3.15;1.98;;;;;;;;;;5030050;28;20440;-74
2023/06/14 05:50:20;;;;;;;8.38;2.05;;;;;;;;;;5025224;28;20034;-73
2023/06/14 05:52:46;;;;;;;6.18;2.08;;;;;;;;;;5028486;28;20032;-74
2023/06/14 05:55:13;;;;;;;9.05;3.17;;;;;;;;;;5030506;28;20095;-73
2023/06/14 05:57:39;;;;;;;7.78;2.17;;;;;;;;;;5027476;28;20076;-74
2023/06/14 06:00:14;;;;;;;5.50;2.03;;;;;;;;;;5019152;28;20074;-74
2023/06/14 06:02:43;;;;;;;3.85;2.03;;;;;;;;;;5021403;28;20034;-73
2023/06/14 06:05:13;;;;;;;3.75;1.98;;;;;;;;;;5031240;28;20037;-76
2023/06/14 06:07:44;;;;;;;6.20;2.20;;;;;;;;;;5028513;28;20041;-74
2023/06/14 06:10:10;;;;;;;4.60;1.90;;;;;;;;;;5027707;28;20041;-75
2023/06/14 06:12:36;;;;;;;5.38;2.65;;;;;;;;;;5046200;28;20037;-74
2023/06/14 06:15:04;;;;;;;2.70;1.73;;;;;;;;;;5030432;28;20082;-73
2023/06/14 06:17:30;;;;;;;4.63;2.03;;;;;;;;;;5042556;28;20049;-74
2023/06/14 06:19:56;;;;;;;5.32;1.88;;;;;;;;;;5026725;28;20032;-74
2023/06/14 06:22:22;;;;;;;6.20;2.00;;;;;;;;;;5027790;28;20034;-74
2023/06/14 06:24:48;;;;;;;5.22;2.17;;;;;;;;;;5030816;28;20127;-74
2023/06/14 06:27:15;;;;;;;6.70;2.00;;;;;;;;;;5031311;28;20072;-75
2023/06/14 06:29:43;;;;;;;9.07;2.33;;;;;;;;;;5031425;28;20034;-73
2023/06/14 06:32:10;;;;;;;9.52;2.25;;;;;;;;;;5046839;28;20561;-74
2023/06/14 06:34:37;;;;;;;10.32;1.98;;;;;;;;;;5027654;28;20037;-74
2023/06/14 06:37:03;;;;;;;13.80;2.35;;;;;;;;;;5030859;28;20034;-74
2023/06/14 06:39:32;;;;;;;5.30;1.95;;;;;;;;;;5028424;28;20018;-75
2023/06/14 06:41:58;;;;;;;54.47;3.20;;;;;;;;;;5031853;28;20083;-75
2023/06/14 06:44:24;;;;;;;16.25;1.77;;;;;;;;;;5031878;28;20064;-74
2023/06/14 06:46:50;;;;;;;51.08;3.10;;;;;;;;;;5044555;28;20439;-74
2023/06/14 06:49:16;;;;;;;14.98;1.90;;;;;;;;;;5030015;28;20042;-75
2023/06/14 06:51:43;;;;;;;11.85;2.10;;;;;;;;;;5029735;28;20030;-74
2023/06/14 06:54:09;;;;;;;11.00;1.58;;;;;;;;;;5031653;28;20035;-74
2023/06/14 06:56:35;;;;;;;15.45;1.90;;;;;;;;;;5029647;28;20044;-74
2023/06/14 06:59:01;;;;;;;10.60;2.70;;;;;;;;;;5030967;28;20057;-75
2023/06/14 07:01:28;;;;;;;15.60;3.10;;;;;;;;;;5029209;28;20037;-75
2023/06/14 07:03:57;;;;;;;12.77;3.25;;;;;;;;;;5026346;28;20049;-75
2023/06/14 07:06:27;;;;;;;8.85;1.67;;;;;;;;;;5031517;28;20025;-75
2023/06/14 07:08:54;;;;;;;11.80;1.63;;;;;;;;;;5030026;28;20021;-75
2023/06/14 07:11:20;;;;;;;52.40;4.75;;;;;;;;;;5031284;28;20030;-76
2023/06/14 07:13:46;;;;;;;5.15;1.90;;;;;;;;;;5022186;28;20462;-76
2023/06/14 07:16:18;;;;;;;6.38;1.73;;;27.80;99.90;;;;;;5019404;28;20113;-75
2023/06/14 07:18:45;;;;;;;23.73;1.85;;;;;;;;;;5030746;28;20033;-75
2023/06/14 07:21:11;;;;;;;38.70;2.10;;;;;;;;;;5012130;28;20399;-75
2023/06/14 07:23:37;;;;;;;4.15;1.50;;;;;;;;;;5029993;28;20467;-75
2023/06/14 07:26:03;;;;;;;3.50;1.80;;;;;;;;;;5020552;28;20033;-75
2023/06/14 07:28:29;;;;;;;2.70;1.65;;;;;;;;;;5029754;28;20021;-76
2023/06/14 07:30:56;;;;;;;2.25;1.20;;;;;;;;;;5029663;28;20025;-76
2023/06/14 07:33:22;;;;;;;7.07;1.80;;;;;;;;;;5028694;28;20033;-75
2023/06/14 07:35:49;;;;;;;3.05;1.13;;;;;;;;;;5020397;28;20033;-75
2023/06/14 07:38:15;;;;;;;3.22;1.42;;;;;;;;;;5031212;28;20041;-75
2023/06/14 07:40:42;;;;;;;5.15;1.10;;;;;;;;;;5031562;28;20033;-75
2023/06/14 07:43:08;;;;;;;3.10;1.58;;;;;;;;;;5027060;28;20428;-76
2023/06/14 07:45:34;;;;;;;2.33;1.50;;;;;;;;;;5029755;28;20471;-75
2023/06/14 07:48:00;;;;;;;6.05;1.65;;;;;;;;;;5030105;28;20033;-75
2023/06/14 07:50:29;;;;;;;8.85;4.15;;;;;;;;;;5029503;28;20065;-73
2023/06/14 07:52:57;;;;;;;2.45;1.27;;;;;;;;;;5027371;28;20083;-73
2023/06/14 07:55:27;;;;;;;4.60;1.35;;;;;;;;;;5027896;28;20057;-73
2023/06/14 07:57:55;;;;;;;3.75;1.95;;;;;;;;;;5030745;28;20071;-76
2023/06/14 08:00:21;;;;;;;5.90;1.33;;;;;;;;;;5029127;28;20075;-74
2023/06/14 08:02:47;;;;;;;2.88;1.23;;;;;;;;;;5025937;28;20209;-76
2023/06/14 08:05:14;;;;;;;6.13;1.38;;;;;;;;;;5028635;28;20495;-74
2023/06/14 08:07:42;;;;;;;6.07;1.15;;;;;;;;;;5030125;28;20161;-74
2023/06/14 08:10:08;;;;;;;4.82;1.52;;;;;;;;;;5029445;28;20072;-74
2023/06/14 08:12:34;;;;;;;5.22;1.23;;;;;;;;;;5027586;28;20037;-74
2023/06/14 08:15:01;;;;;;;5.95;3.70;;;;;;;;;;5028220;28;20044;-74
2023/06/14 08:17:27;;;;;;;3.78;1.77;;;;;;;;;;5048617;28;20049;-74
2023/06/14 08:19:57;;;;;;;7.53;1.50;;;;;;;;;;5037698;28;20088;-74
2023/06/14 08:22:24;;;;;;;5.68;1.33;;;;;;;;;;5028697;28;20128;-74
2023/06/14 08:24:54;;;;;;;7.82;1.63;;;;;;;;;;5020948;28;20033;-74
2023/06/14 08:27:22;;;;;;;4.60;1.55;;;;;;;;;;5018368;28;20111;-74
2023/06/14 08:29:48;;;;;;;2.33;1.30;;;31.70;99.90;;;;;;5029205;28;20048;-73
2023/06/14 08:32:13;;;;;;;19.48;1.45;;;31.50;99.90;;;;;;5030072;28;20410;-74
2023/06/14 08:34:39;;;;;;;8.55;1.80;;;31.40;99.90;;;;;;5029336;28;20112;-74
2023/06/14 08:37:06;;;;;;;10.77;1.90;;;31.30;99.90;;;;;;5029617;28;20026;-74
2023/06/14 08:39:32;;;;;;;10.68;1.40;;;31.40;99.90;;;;;;5030004;28;20040;-74
2023/06/14 08:42:00;;;;;;;9.85;1.55;;;31.30;99.90;;;;;;5028999;28;20025;-74
2023/06/14 08:44:25;;;;;;;12.43;1.33;;;31.40;99.90;;;;;;5029172;28;20030;-74
2023/06/14 08:46:53;;;;;;;6.30;1.40;;;31.40;99.90;;;;;;5030692;28;20037;-74
2023/06/14 08:49:21;;;;;;;3.10;1.20;;;31.70;99.90;;;;;;5034478;28;20033;-74
2023/06/14 08:51:51;;;;;;;3.65;1.30;;;;;;;;;;5031070;28;20041;-74
2023/06/14 08:54:20;;;;;;;4.43;1.45;;;;;;;;;;5033671;28;20026;-74
2023/06/14 08:56:48;;;;;;;5.07;1.33;;;31.40;99.90;;;;;;5032067;28;20088;-74
2023/06/14 08:59:15;;;;;;;10.40;1.23;;;;;;;;;;5017027;28;20092;-76
2023/06/14 09:01:41;;;;;;;7.85;1.50;;;;;;;;;;5025429;28;20040;-74
2023/06/14 09:04:07;;;;;;;7.68;1.55;;;;;;;;;;5026943;28;20038;-74
2023/06/14 09:06:33;;;;;;;16.00;1.50;;;;;;;;;;5032771;28;20052;-76
2023/06/14 09:08:59;;;;;;;7.53;1.30;;;;;;;;;;5031591;28;20475;-74
2023/06/14 09:11:28;;;;;;;21.98;2.22;;;;;;;;;;5030634;28;20064;-75
2023/06/14 09:13:54;;;;;;;4.53;1.17;;;;;;;;;;5032273;28;20049;-74
2023/06/14 09:16:20;;;;;;;8.00;1.40;;;;;;;;;;5029918;28;20033;-74
2023/06/14 09:18:47;;;;;;;11.90;1.73;;;;;;;;;;5032452;28;20059;-74
2023/06/14 09:21:17;;;;;;;13.27;1.60;;;;;;;;;;5033453;28;20414;-74
2023/06/14 09:23:47;;;;;;;17.75;1.48;;;;;;;;;;5018851;28;20510;-74
2023/06/14 09:26:17;;;;;;;3.58;1.08;;;31.10;99.90;;;;;;5033711;28;20032;-75
2023/06/14 09:28:47;;;;;;;14.18;1.38;;;31.00;99.90;;;;;;5032818;28;20525;-74
2023/06/14 09:31:18;;;;;;;19.58;1.42;;;30.90;99.90;;;;;;5049343;28;20026;-74
2023/06/14 09:33:48;;;;;;;11.15;1.33;;;;;;;;;;5020915;28;20096;-74
2023/06/14 09:36:25;;;;;;;6.13;1.40;;;31.00;99.90;;;;;;5032050;28;20041;-74
2023/06/14 09:39:00;;;;;;;4.55;1.23;;;30.70;99.90;;;;;;5025689;28;20018;-74
2023/06/14 09:41:39;;;;;;;5.45;1.40;;;30.90;99.90;;;;;;5032686;28;20084;-74
2023/06/14 09:44:06;;;;;;;34.67;1.90;;;;;;;;;;5026647;28;20034;-74
2023/06/14 09:46:32;;;;;;;5.90;1.23;;;;;;;;;;5025393;28;20033;-74
2023/06/14 09:48:59;;;;;;;4.43;1.35;;;;;;;;;;5023284;28;20340;-70
2023/06/14 09:51:26;;;;;;;6.28;1.52;;;;;;;;;;5023242;28;20022;-75
2023/06/14 09:53:52;;;;;;;11.00;1.60;;;;;;;;;;5041823;28;20525;-75
2023/06/14 09:56:29;;;;;;;2.90;1.08;;;;;;;;;;5024325;28;20026;-73
2023/06/14 09:58:56;;;;;;;8.70;1.30;;;;;;;;;;5025428;28;20021;-74
2023/06/14 10:01:22;;;;;;;14.48;1.48;;;;;;;;;;5020333;28;20029;-70
2023/06/14 10:03:51;;;;;;;5.43;2.13;;;;;;;;;;5029894;28;20091;-71
2023/06/14 10:06:17;;;;;;;27.05;1.88;;;;;;;;;;5026041;28;20487;-71
2023/06/14 10:08:44;;;;;;;1.65;1.20;;;;;;;;;;5030245;28;20045;-71
2023/06/14 10:11:12;;;;;;;16.45;1.98;;;;;;;;;;5020959;28;20037;-72
2023/06/14 10:13:38;;;;;;;3.10;1.17;;;;;;;;;;5019761;28;20052;-70
2023/06/14 10:16:23;;;;;;;7.28;1.52;;;;;;;;;;5024075;28;20042;-72
2023/06/14 10:19:00;;;;;;;14.30;1.60;;;;;;;;;;5024371;28;20036;-75
2023/06/14 10:21:33;;;;;;;4.90;1.40;;;;;;;;;;5020430;28;20481;-79
2023/06/14 10:24:01;;;;;;;3.35;1.55;;;;;;;;;;5023205;28;20073;-81
2023/06/14 10:26:28;;;;;;;5.75;1.15;;;;;;;;;;5025027;28;20026;-83
2023/06/14 10:29:03;;;;;;;6.43;1.30;;;;;;;;;;5031947;28;20036;-84
2023/06/14 10:31:45;;;;;;;39.70;2.85;;;;;;;;;;5023936;28;20032;-82
2023/06/14 10:34:13;;;;;;;2.33;1.40;;;;;;;;;;5020127;28;20030;-80
2023/06/14 10:36:43;;;;;;;13.00;1.48;;;;;;;;;;5022947;28;20034;-79
2023/06/14 10:39:16;;;;;;;4.95;1.50;;;;;;;;;;5021051;28;20077;-79
2023/06/14 10:41:50;;;;;;;9.45;1.40;;;;;;;;;;5021299;28;20131;-78
2023/06/14 10:44:22;;;;;;;6.68;1.23;;;;;;;;;;5030454;28;20112;-81
2023/06/14 10:46:49;;;;;;;8.40;1.33;;;;;;;;;;5029101;28;20025;-78
2023/06/14 10:49:19;;;;;;;7.50;1.70;;;;;;;;;;5030574;28;20037;-80
2023/06/14 10:51:51;;;;;;;2.88;1.10;;;;;;;;;;5041787;28;20028;-79
2023/06/14 10:54:17;;;;;;;3.42;1.77;;;;;;;;;;5032357;28;20022;-80
2023/06/14 10:56:51;;;;;;;3.13;1.38;;;;;;;;;;5028467;28;20029;-79
2023/06/14 10:59:18;;;;;;;7.78;1.48;;;;;;;;;;5031810;28;20025;-76
2023/06/14 11:01:50;;;;;;;4.28;2.20;;;;;;;;;;5026674;28;20604;-78
2023/06/14 11:04:17;;;;;;;5.70;1.48;;;;;;;;;;5029724;28;20075;-76
2023/06/14 11:06:53;;;;;;;2.13;1.10;;;;;;;;;;5028751;28;20052;-76
2023/06/14 11:09:39;;;;;;;2.08;1.27;;;;;;;;;;5028295;28;20033;-76
2023/06/14 11:12:07;;;;;;;4.53;1.90;;;;;;;;;;5028533;28;20020;-76
2023/06/14 11:14:33;;;;;;;9.70;1.63;;;;;;;;;;5027859;28;20061;-76
2023/06/14 11:17:00;;;;;;;9.57;1.27;;;;;;;;;;5026169;28;20045;-78
2023/06/14 11:19:28;;;;;;;18.48;1.40;;;;;;;;;;5024071;28;20187;-78
2023/06/14 11:21:56;;;;;;;5.85;1.20;;;;;;;;;;5027086;28;20498;-80
2023/06/14 11:24:22;;;;;;;4.30;1.58;;;;;;;;;;5027032;28;20548;-77
2023/06/14 11:26:48;;;;;;;7.50;1.38;;;;;;;;;;5028124;28;20030;-78
2023/06/14 11:29:16;;;;;;;16.02;1.63;;;;;;;;;;5026292;28;20509;-76
2023/06/14 11:31:45;;;;;;;6.53;1.23;;;;;;;;;;5027343;28;20774;-78
2023/06/14 11:34:12;;;;;;;4.65;1.40;;;;;;;;;;5022584;28;20534;-77
2023/06/14 11:36:39;;;;;;;30.45;5.25;;;;;;;;;;5027283;28;20049;-76
2023/06/14 11:39:08;;;;;;;16.35;1.52;;;;;;;;;;5029142;28;20499;-78
2023/06/14 11:41:39;;;;;;;6.80;1.10;;;;;;;;;;5023606;28;20064;-78
2023/06/14 11:44:06;;;;;;;2.30;1.10;;;;;;;;;;5025757;28;20120;-73
2023/06/14 11:46:32;;;;;;;5.78;1.30;;;;;;;;;;5027671;28;20043;-73
2023/06/14 11:48:58;;;;;;;4.47;1.67;;;;;;;;;;5015255;28;20034;-73
2023/06/14 11:51:26;;;;;;;7.75;1.55;;;;;;;;;;5033172;28;20034;-74
2023/06/14 11:53:52;;;;;;;4.03;1.35;;;;;;;;;;5031167;28;20033;-73
2023/06/14 11:56:20;;;;;;;11.30;1.30;;;;;;;;;;5030069;28;20084;-75
2023/06/14 11:58:47;;;;;;;12.27;1.50;;;;;;;;;;5028461;28;20112;-74
2023/06/14 12:01:25;;;;;;;4.05;1.27;;;;;;;;;;5029909;28;20116;-75
2023/06/14 12:03:53;;;;;;;7.75;1.38;;;;;;;;;;5030178;28;20037;-74
2023/06/14 12:06:28;;;;;;;15.80;1.42;;;;;;;;;;5029667;28;20545;-74
2023/06/14 12:08:56;;;;;;;8.93;1.77;;;;;;;;;;5030799;28;20467;-74
2023/06/14 12:11:22;;;;;;;9.25;1.38;;;;;;;;;;5031029;28;20053;-74
2023/06/14 12:13:49;;;;;;;3.28;1.40;;;;;;;;;;5028224;28;20029;-74
2023/06/14 12:16:16;;;;;;;7.18;1.33;;;;;;;;;;5028608;28;20033;-74
2023/06/14 12:18:43;;;;;;;4.80;1.15;;;;;;;;;;5017429;28;20041;-74
2023/06/14 12:21:11;;;;;;;12.15;1.98;;;;;;;;;;5032573;28;20045;-74
2023/06/14 12:23:43;;;;;;;7.50;3.10;;;;;;;;;;5044068;28;20049;-74
2023/06/14 12:26:09;;;;;;;3.20;1.60;;;;;;;;;;5030021;28;20491;-74
2023/06/14 12:28:35;;;;;;;2.00;0.85;;;;;;;;;;5030518;28;20037;-74
2023/06/14 12:31:01;;;;;;;5.20;1.10;;;;;;;;;;5029275;28;20037;-74
2023/06/14 12:33:27;;;;;;;7.38;1.02;;;;;;;;;;5042037;28;20082;-73
2023/06/14 12:35:57;;;;;;;4.47;0.93;;;;;;;;;;5026860;28;20032;-73
2023/06/14 12:38:23;;;;;;;32.38;3.85;;;;;;;;;;5046005;28;20041;-74
2023/06/14 12:40:49;;;;;;;3.45;1.00;;;;;;;;;;5027650;28;20065;-74
2023/06/14 12:43:15;;;;;;;3.35;0.70;;;;;;;;;;5029497;28;20495;-74
2023/06/14 12:45:42;;;;;;;4.22;1.30;;;;;;;;;;5030124;28;20099;-74
2023/06/14 12:48:08;;;;;;;3.80;0.95;;;;;;;;;;5028513;28;20025;-74
2023/06/14 12:50:35;;;;;;;3.67;0.85;;;;;;;;;;5029149;28;20061;-74
2023/06/14 12:53:02;;;;;;;2.15;0.90;;;;;;;;;;5023581;28;20391;-74
2023/06/14 12:55:28;;;;;;;1.85;1.10;;;;;;;;;;5028773;28;20474;-74
2023/06/14 12:57:54;;;;;;;1.15;0.98;;;;;;;;;;5030458;28;20095;-74
2023/06/14 13:00:21;;;;;;;3.83;1.00;;;;;;;;;;5021983;28;20045;-75
2023/06/14 13:02:47;;;;;;;4.97;1.10;;;;;;;;;;5025245;28;20044;-74
2023/06/14 13:05:13;;;;;;;4.95;1.38;;;;;;;;;;5010429;28;20030;-74
2023/06/14 13:07:39;;;;;;;32.20;1.92;;;;;;;;;;5028859;28;20399;-75
2023/06/14 13:10:05;;;;;;;2.95;0.80;;;;;;;;;;5029291;28;20037;-74
2023/06/14 13:12:31;;;;;;;1.35;0.90;;;;;;;;;;5029791;28;20065;-74
2023/06/14 13:14:57;;;;;;;6.07;1.05;;;;;;;;;;5027560;28;20104;-74
2023/06/14 13:17:23;;;;;;;5.38;0.75;;;;;;;;;;5028692;28;20057;-74
2023/06/14 13:19:50;;;;;;;7.10;1.02;;;;;;;;;;5029641;28;20084;-74
2023/06/14 13:22:16;;;;;;;4.00;1.75;;;;;;;;;;5028115;28;20030;-74
2023/06/14 13:24:42;;;;;;;2.67;1.00;;;;;;;;;;5027511;28;20120;-73
2023/06/14 13:27:08;;;;;;;7.63;0.95;;;;;;;;;;5027880;28;20037;-74
2023/06/14 13:29:35;;;;;;;298.10;19.52;;;;;;;;;;5027976;28;20041;-73
2023/06/14 13:32:02;;;;;;;12.68;2.00;;;;;;;;;;5028246;28;20434;-73
2023/06/14 13:34:28;;;;;;;8.25;1.48;;;;;;;;;;5029319;28;20091;-73
2023/06/14 13:36:55;;;;;;;5.97;1.10;;;;;;;;;;5048642;28;20072;-74
2023/06/14 13:39:21;;;;;;;6.22;1.30;;;;;;;;;;5033964;28;20025;-73
2023/06/14 13:41:47;;;;;;;3.13;0.90;;;;;;;;;;5033213;28;20040;-74
2023/06/14 13:44:14;;;;;;;2.78;0.90;;;;;;;;;;5033227;28;20060;-74
2023/06/14 13:46:42;;;;;;;5.30;0.90;;;;;;;;;;5030224;28;20445;-74
2023/06/14 13:49:08;;;;;;;2.65;1.10;;;;;;;;;;5020925;28;20395;-74
2023/06/14 13:51:34;;;;;;;2.55;0.80;;;;;;;;;;5032142;28;20033;-74
2023/06/14 13:54:01;;;;;;;4.85;1.20;;;;;;;;;;5033441;28;20499;-74
2023/06/14 13:56:27;;;;;;;3.78;1.13;;;;;;;;;;5032940;28;20508;-74
2023/06/14 13:58:54;;;;;;;4.07;1.10;;;;;;;;;;5030944;28;20033;-74
2023/06/14 14:01:22;;;;;;;1.75;1.02;;;;;;;;;;5029796;28;20099;-74
2023/06/14 14:03:49;;;;;;;7.80;1.02;;;;;;;;;;5032355;28;20511;-74
2023/06/14 14:06:15;;;;;;;4.22;1.27;;;;;;;;;;5030162;28;20037;-74
2023/06/14 14:08:41;;;;;;;4.88;0.80;;;;;;;;;;5032951;28;20021;-74
2023/06/14 14:11:08;;;;;;;15.82;2.75;;;;;;;;;;5021223;28;20025;-74
2023/06/14 14:13:36;;;;;;;3.17;1.20;;;;;;;;;;5031737;28;20514;-74
2023/06/14 14:16:02;;;;;;;2.10;1.23;;;;;;;;;;5032785;28;20037;-73
2023/06/14 14:18:28;;;;;;;1.33;0.85;;;;;;;;;;5027033;28;20049;-77
2023/06/14 14:20:54;;;;;;;5.75;0.90;;;;;;;;;;5025937;28;20188;-77
2023/06/14 14:23:21;;;;;;;1.48;1.00;;;;;;;;;;5032422;28;20091;-78
2023/06/14 14:25:47;;;;;;;1.92;0.82;;;;;;;;;;5029205;28;20049;-73
2023/06/14 14:28:15;;;;;;;5.32;0.90;;;;;;;;;;5018403;28;20044;-78
2023/06/14 14:30:41;;;;;;;1.98;0.82;;;;;;;;;;5031878;28;20027;-76
2023/06/14 14:33:08;;;;;;;3.92;1.10;;;;;;;;;;5028007;28;20044;-77
2023/06/14 14:35:34;;;;;;;5.75;1.15;;;;;;;;;;5031756;28;20037;-76